sensor_id;sensor_type;location;lat;lon;timestamp;pressure;altitude;pressure_sealevel;temperature
35582;BMP180;21687;48.900;9.188;2022-10-22T00:02:44;98156.00;;;12.20
35582;BMP180;21687;48.900;9.188;2022-10-22T00:05:31;98155.00;;;12.10
35582;BMP180;21687;48.900;9.188;2022-10-22T00:08:17;98169.00;;;12.10
35582;BMP180;21687;48.900;9.188;2022-10-22T00:11:13;98156.00;;;12.10
35582;BMP180;21687;48.900;9.188;2022-10-22T00:13:59;98158.00;;;12.10
35582;BMP180;21687;48.900;9.188;2022-10-22T00:16:46;98150.00;;;12.00
35582;BMP180;21687;48.900;9.188;2022-10-22T00:19:33;98146.00;;;12.00
35582;BMP180;21687;48.900;9.188;2022-10-22T00:22:19;98152.00;;;12.10
35582;BMP180;21687;48.900;9.188;2022-10-22T00:25:06;98156.00;;;12.00
35582;BMP180;21687;48.900;9.188;2022-10-22T00:27:52;98155.00;;;12.10
35582;BMP180;21687;48.900;9.188;2022-10-22T00:30:39;98152.00;;;12.10
35582;BMP180;21687;48.900;9.188;2022-10-22T00:33:27;98155.00;;;12.00
35582;BMP180;21687;48.900;9.188;2022-10-22T00:36:15;98159.00;;;12.00
35582;BMP180;21687;48.900;9.188;2022-10-22T00:39:02;98174.00;;;12.00
35582;BMP180;21687;48.900;9.188;2022-10-22T00:41:50;98173.00;;;12.00
35582;BMP180;21687;48.900;9.188;2022-10-22T00:47:56;98179.00;;;12.00
35582;BMP180;21687;48.900;9.188;2022-10-22T00:50:51;98179.00;;;12.00
35582;BMP180;21687;48.900;9.188;2022-10-22T00:53:49;98179.00;;;12.00
35582;BMP180;21687;48.900;9.188;2022-10-22T00:56:38;98170.00;;;12.00
35582;BMP180;21687;48.900;9.188;2022-10-22T00:59:25;98154.00;;;12.10
35582;BMP180;21687;48.900;9.188;2022-10-22T01:02:11;98150.00;;;12.00
35582;BMP180;21687;48.900;9.188;2022-10-22T01:04:58;98149.00;;;12.00
35582;BMP180;21687;48.900;9.188;2022-10-22T01:07:48;98141.00;;;11.90
35582;BMP180;21687;48.900;9.188;2022-10-22T01:14:16;98122.00;;;12.00
35582;BMP180;21687;48.900;9.188;2022-10-22T01:17:08;98096.00;;;12.00
35582;BMP180;21687;48.900;9.188;2022-10-22T01:23:31;98126.00;;;12.00
35582;BMP180;21687;48.900;9.188;2022-10-22T01:29:23;98115.00;;;12.00
35582;BMP180;21687;48.900;9.188;2022-10-22T01:32:14;98139.00;;;12.10
35582;BMP180;21687;48.900;9.188;2022-10-22T01:35:05;98144.00;;;12.10
35582;BMP180;21687;48.900;9.188;2022-10-22T01:37:56;98133.00;;;12.00
35582;BMP180;21687;48.900;9.188;2022-10-22T01:40:44;98149.00;;;12.00
35582;BMP180;21687;48.900;9.188;2022-10-22T01:43:31;98156.00;;;12.00
35582;BMP180;21687;48.900;9.188;2022-10-22T01:46:21;98154.00;;;12.00
35582;BMP180;21687;48.900;9.188;2022-10-22T01:49:15;98149.00;;;12.00
35582;BMP180;21687;48.900;9.188;2022-10-22T02:01:31;98166.00;;;11.90
35582;BMP180;21687;48.900;9.188;2022-10-22T02:07:49;98191.00;;;12.00
35582;BMP180;21687;48.900;9.188;2022-10-22T02:10:38;98188.00;;;12.10
35582;BMP180;21687;48.900;9.188;2022-10-22T02:13:42;98196.00;;;12.00
35582;BMP180;21687;48.900;9.188;2022-10-22T02:16:35;98204.00;;;12.00
35582;BMP180;21687;48.900;9.188;2022-10-22T02:19:46;98200.00;;;12.00
35582;BMP180;21687;48.900;9.188;2022-10-22T02:22:35;98181.00;;;12.00
35582;BMP180;21687;48.900;9.188;2022-10-22T02:25:26;98176.00;;;11.90
35582;BMP180;21687;48.900;9.188;2022-10-22T02:31:35;98181.00;;;11.90
35582;BMP180;21687;48.900;9.188;2022-10-22T02:34:26;98173.00;;;11.90
35582;BMP180;21687;48.900;9.188;2022-10-22T02:37:15;98181.00;;;11.90
35582;BMP180;21687;48.900;9.188;2022-10-22T02:40:03;98180.00;;;11.90
35582;BMP180;21687;48.900;9.188;2022-10-22T02:42:50;98195.00;;;11.90
35582;BMP180;21687;48.900;9.188;2022-10-22T02:45:37;98189.00;;;11.90
35582;BMP180;21687;48.900;9.188;2022-10-22T02:48:24;98179.00;;;11.90
35582;BMP180;21687;48.900;9.188;2022-10-22T02:51:10;98182.00;;;11.90
35582;BMP180;21687;48.900;9.188;2022-10-22T02:53:57;98180.00;;;12.00
35582;BMP180;21687;48.900;9.188;2022-10-22T02:56:44;98169.00;;;12.10
35582;BMP180;21687;48.900;9.188;2022-10-22T02:59:30;98175.00;;;12.10
35582;BMP180;21687;48.900;9.188;2022-10-22T03:02:17;98180.00;;;12.10
35582;BMP180;21687;48.900;9.188;2022-10-22T03:05:04;98180.00;;;12.10
35582;BMP180;21687;48.900;9.188;2022-10-22T03:07:51;98168.00;;;12.10
35582;BMP180;21687;48.900;9.188;2022-10-22T03:10:37;98161.00;;;12.00
35582;BMP180;21687;48.900;9.188;2022-10-22T03:13:24;98161.00;;;12.00
35582;BMP180;21687;48.900;9.188;2022-10-22T03:16:10;98179.00;;;12.00
35582;BMP180;21687;48.900;9.188;2022-10-22T03:18:57;98181.00;;;12.00
35582;BMP180;21687;48.900;9.188;2022-10-22T03:24:46;98171.00;;;11.90
35582;BMP180;21687;48.900;9.188;2022-10-22T03:27:35;98159.00;;;11.90
35582;BMP180;21687;48.900;9.188;2022-10-22T03:30:24;98138.00;;;12.00
35582;BMP180;21687;48.900;9.188;2022-10-22T03:33:10;98132.00;;;12.00
35582;BMP180;21687;48.900;9.188;2022-10-22T03:35:57;98147.00;;;12.00
35582;BMP180;21687;48.900;9.188;2022-10-22T03:38:43;98155.00;;;11.90
35582;BMP180;21687;48.900;9.188;2022-10-22T03:41:30;98159.00;;;11.90
35582;BMP180;21687;48.900;9.188;2022-10-22T03:44:17;98156.00;;;12.00
35582;BMP180;21687;48.900;9.188;2022-10-22T03:47:05;98143.00;;;11.90
35582;BMP180;21687;48.900;9.188;2022-10-22T03:49:52;98137.00;;;11.90
35582;BMP180;21687;48.900;9.188;2022-10-22T03:52:39;98132.00;;;11.90
35582;BMP180;21687;48.900;9.188;2022-10-22T03:55:26;98134.00;;;11.90
35582;BMP180;21687;48.900;9.188;2022-10-22T03:58:12;98143.00;;;11.90
35582;BMP180;21687;48.900;9.188;2022-10-22T04:01:07;98145.00;;;11.90
35582;BMP180;21687;48.900;9.188;2022-10-22T04:03:55;98156.00;;;11.90
35582;BMP180;21687;48.900;9.188;2022-10-22T04:06:41;98165.00;;;12.00
35582;BMP180;21687;48.900;9.188;2022-10-22T04:09:31;98172.00;;;12.00
35582;BMP180;21687;48.900;9.188;2022-10-22T04:12:18;98171.00;;;12.00
35582;BMP180;21687;48.900;9.188;2022-10-22T04:15:05;98185.00;;;12.00
35582;BMP180;21687;48.900;9.188;2022-10-22T04:17:51;98184.00;;;12.00
35582;BMP180;21687;48.900;9.188;2022-10-22T04:20:40;98165.00;;;11.90
35582;BMP180;21687;48.900;9.188;2022-10-22T04:23:26;98171.00;;;11.90
35582;BMP180;21687;48.900;9.188;2022-10-22T04:26:13;98196.00;;;11.80
35582;BMP180;21687;48.900;9.188;2022-10-22T04:29:00;98195.00;;;11.80
35582;BMP180;21687;48.900;9.188;2022-10-22T04:31:46;98191.00;;;11.70
35582;BMP180;21687;48.900;9.188;2022-10-22T04:34:33;98181.00;;;11.70
35582;BMP180;21687;48.900;9.188;2022-10-22T04:37:20;98175.00;;;11.60
35582;BMP180;21687;48.900;9.188;2022-10-22T04:40:07;98178.00;;;11.60
35582;BMP180;21687;48.900;9.188;2022-10-22T04:42:53;98178.00;;;11.50
35582;BMP180;21687;48.900;9.188;2022-10-22T04:45:40;98179.00;;;11.50
35582;BMP180;21687;48.900;9.188;2022-10-22T04:48:26;98182.00;;;11.60
35582;BMP180;21687;48.900;9.188;2022-10-22T04:51:16;98188.00;;;11.70
35582;BMP180;21687;48.900;9.188;2022-10-22T04:54:03;98190.00;;;11.70
35582;BMP180;21687;48.900;9.188;2022-10-22T04:56:49;98186.00;;;11.80
35582;BMP180;21687;48.900;9.188;2022-10-22T04:59:36;98181.00;;;11.90
35582;BMP180;21687;48.900;9.188;2022-10-22T05:02:22;98191.00;;;12.00
35582;BMP180;21687;48.900;9.188;2022-10-22T05:05:09;98184.00;;;12.20
35582;BMP180;21687;48.900;9.188;2022-10-22T05:07:57;98197.00;;;12.10
35582;BMP180;21687;48.900;9.188;2022-10-22T05:10:43;98203.00;;;12.20
35582;BMP180;21687;48.900;9.188;2022-10-22T05:13:30;98207.00;;;12.20
35582;BMP180;21687;48.900;9.188;2022-10-22T05:16:16;98210.00;;;12.10
35582;BMP180;21687;48.900;9.188;2022-10-22T05:19:04;98224.00;;;12.10
35582;BMP180;21687;48.900;9.188;2022-10-22T05:21:56;98223.00;;;12.10
35582;BMP180;21687;48.900;9.188;2022-10-22T05:24:43;98231.00;;;11.90
35582;BMP180;21687;48.900;9.188;2022-10-22T05:27:30;98238.00;;;11.90
35582;BMP180;21687;48.900;9.188;2022-10-22T05:30:16;98244.00;;;11.80
35582;BMP180;21687;48.900;9.188;2022-10-22T05:33:03;98256.00;;;11.70
35582;BMP180;21687;48.900;9.188;2022-10-22T05:35:50;98257.00;;;11.70
35582;BMP180;21687;48.900;9.188;2022-10-22T05:38:37;98265.00;;;11.80
35582;BMP180;21687;48.900;9.188;2022-10-22T05:41:25;98257.00;;;11.60
35582;BMP180;21687;48.900;9.188;2022-10-22T05:44:12;98268.00;;;11.60
35582;BMP180;21687;48.900;9.188;2022-10-22T05:46:59;98278.00;;;11.50
35582;BMP180;21687;48.900;9.188;2022-10-22T05:49:45;98279.00;;;11.50
35582;BMP180;21687;48.900;9.188;2022-10-22T05:52:32;98294.00;;;11.40
35582;BMP180;21687;48.900;9.188;2022-10-22T05:55:18;98297.00;;;11.40
35582;BMP180;21687;48.900;9.188;2022-10-22T05:58:05;98304.00;;;11.30
35582;BMP180;21687;48.900;9.188;2022-10-22T06:00:51;98306.00;;;11.30
35582;BMP180;21687;48.900;9.188;2022-10-22T06:03:38;98300.00;;;11.30
35582;BMP180;21687;48.900;9.188;2022-10-22T06:06:34;98306.00;;;11.30
35582;BMP180;21687;48.900;9.188;2022-10-22T06:09:24;98312.00;;;11.30
35582;BMP180;21687;48.900;9.188;2022-10-22T06:12:11;98309.00;;;11.40
35582;BMP180;21687;48.900;9.188;2022-10-22T06:14:59;98320.00;;;11.60
35582;BMP180;21687;48.900;9.188;2022-10-22T06:17:46;98317.00;;;11.60
35582;BMP180;21687;48.900;9.188;2022-10-22T06:20:34;98336.00;;;11.70
35582;BMP180;21687;48.900;9.188;2022-10-22T06:23:20;98332.00;;;11.60
35582;BMP180;21687;48.900;9.188;2022-10-22T06:26:08;98335.00;;;11.60
35582;BMP180;21687;48.900;9.188;2022-10-22T06:28:55;98342.00;;;11.60
35582;BMP180;21687;48.900;9.188;2022-10-22T06:31:42;98348.00;;;11.70
35582;BMP180;21687;48.900;9.188;2022-10-22T06:34:29;98359.00;;;11.70
35582;BMP180;21687;48.900;9.188;2022-10-22T06:37:15;98367.00;;;11.80
35582;BMP180;21687;48.900;9.188;2022-10-22T06:40:03;98375.00;;;11.90
35582;BMP180;21687;48.900;9.188;2022-10-22T06:42:50;98377.00;;;12.00
35582;BMP180;21687;48.900;9.188;2022-10-22T06:45:36;98371.00;;;12.10
35582;BMP180;21687;48.900;9.188;2022-10-22T06:48:23;98367.00;;;12.10
35582;BMP180;21687;48.900;9.188;2022-10-22T06:51:11;98378.00;;;12.20
35582;BMP180;21687;48.900;9.188;2022-10-22T06:53:58;98387.00;;;12.20
35582;BMP180;21687;48.900;9.188;2022-10-22T06:56:33;98387.00;;;12.40
35582;BMP180;21687;48.900;9.188;2022-10-22T06:58:59;98391.00;;;12.40
35582;BMP180;21687;48.900;9.188;2022-10-22T07:01:30;98395.00;;;12.40
35582;BMP180;21687;48.900;9.188;2022-10-22T07:03:57;98401.00;;;12.40
35582;BMP180;21687;48.900;9.188;2022-10-22T07:06:24;98405.00;;;12.50
35582;BMP180;21687;48.900;9.188;2022-10-22T07:08:52;98406.00;;;12.60
35582;BMP180;21687;48.900;9.188;2022-10-22T07:11:21;98408.00;;;12.80
35582;BMP180;21687;48.900;9.188;2022-10-22T07:13:48;98404.00;;;12.90
35582;BMP180;21687;48.900;9.188;2022-10-22T07:16:16;98408.00;;;13.00
35582;BMP180;21687;48.900;9.188;2022-10-22T07:18:43;98411.00;;;13.00
35582;BMP180;21687;48.900;9.188;2022-10-22T07:21:10;98429.00;;;13.20
35582;BMP180;21687;48.900;9.188;2022-10-22T07:23:37;98430.00;;;13.20
35582;BMP180;21687;48.900;9.188;2022-10-22T07:26:05;98429.00;;;13.20
35582;BMP180;21687;48.900;9.188;2022-10-22T07:28:36;98421.00;;;13.40
35582;BMP180;21687;48.900;9.188;2022-10-22T07:31:07;98430.00;;;13.50
35582;BMP180;21687;48.900;9.188;2022-10-22T07:33:33;98439.00;;;13.60
35582;BMP180;21687;48.900;9.188;2022-10-22T07:36:02;98440.00;;;13.80
35582;BMP180;21687;48.900;9.188;2022-10-22T07:38:29;98446.00;;;14.10
35582;BMP180;21687;48.900;9.188;2022-10-22T07:40:57;98442.00;;;14.20
35582;BMP180;21687;48.900;9.188;2022-10-22T07:43:23;98442.00;;;14.40
35582;BMP180;21687;48.900;9.188;2022-10-22T07:45:50;98442.00;;;14.40
35582;BMP180;21687;48.900;9.188;2022-10-22T07:48:17;98448.00;;;14.60
35582;BMP180;21687;48.900;9.188;2022-10-22T07:50:43;98443.00;;;14.70
35582;BMP180;21687;48.900;9.188;2022-10-22T07:53:09;98442.00;;;14.50
35582;BMP180;21687;48.900;9.188;2022-10-22T07:55:36;98452.00;;;14.40
35582;BMP180;21687;48.900;9.188;2022-10-22T07:58:02;98456.00;;;14.30
35582;BMP180;21687;48.900;9.188;2022-10-22T08:00:29;98456.00;;;14.30
35582;BMP180;21687;48.900;9.188;2022-10-22T08:02:55;98449.00;;;14.30
35582;BMP180;21687;48.900;9.188;2022-10-22T08:05:21;98449.00;;;14.30
35582;BMP180;21687;48.900;9.188;2022-10-22T08:07:48;98450.00;;;14.30
35582;BMP180;21687;48.900;9.188;2022-10-22T08:10:14;98460.00;;;14.30
35582;BMP180;21687;48.900;9.188;2022-10-22T08:12:41;98460.00;;;14.30
35582;BMP180;21687;48.900;9.188;2022-10-22T08:15:08;98461.00;;;14.30
35582;BMP180;21687;48.900;9.188;2022-10-22T08:17:35;98466.00;;;14.30
35582;BMP180;21687;48.900;9.188;2022-10-22T08:20:01;98468.00;;;14.20
35582;BMP180;21687;48.900;9.188;2022-10-22T08:22:28;98456.00;;;14.20
35582;BMP180;21687;48.900;9.188;2022-10-22T08:24:54;98460.00;;;14.10
35582;BMP180;21687;48.900;9.188;2022-10-22T08:27:22;98460.00;;;14.10
35582;BMP180;21687;48.900;9.188;2022-10-22T08:29:48;98464.00;;;14.00
35582;BMP180;21687;48.900;9.188;2022-10-22T08:32:14;98460.00;;;14.00
35582;BMP180;21687;48.900;9.188;2022-10-22T08:34:40;98464.00;;;14.00
35582;BMP180;21687;48.900;9.188;2022-10-22T08:37:07;98463.00;;;14.00
35582;BMP180;21687;48.900;9.188;2022-10-22T08:39:33;98470.00;;;14.00
35582;BMP180;21687;48.900;9.188;2022-10-22T08:45:14;98473.00;;;14.00
35582;BMP180;21687;48.900;9.188;2022-10-22T08:50:43;98470.00;;;14.00
35582;BMP180;21687;48.900;9.188;2022-10-22T08:56:26;98470.00;;;14.10
35582;BMP180;21687;48.900;9.188;2022-10-22T08:59:16;98471.00;;;14.20
35582;BMP180;21687;48.900;9.188;2022-10-22T09:01:46;98471.00;;;14.30
35582;BMP180;21687;48.900;9.188;2022-10-22T09:06:52;98477.00;;;14.50
35582;BMP180;21687;48.900;9.188;2022-10-22T09:09:20;98473.00;;;14.60
35582;BMP180;21687;48.900;9.188;2022-10-22T09:11:49;98475.00;;;14.70
35582;BMP180;21687;48.900;9.188;2022-10-22T09:14:18;98478.00;;;14.90
35582;BMP180;21687;48.900;9.188;2022-10-22T09:25:34;98476.00;;;15.40
35582;BMP180;21687;48.900;9.188;2022-10-22T09:28:01;98475.00;;;15.40
35582;BMP180;21687;48.900;9.188;2022-10-22T09:30:32;98470.00;;;15.60
35582;BMP180;21687;48.900;9.188;2022-10-22T09:33:05;98481.00;;;15.70
35582;BMP180;21687;48.900;9.188;2022-10-22T09:35:56;98480.00;;;15.80
35582;BMP180;21687;48.900;9.188;2022-10-22T09:38:29;98486.00;;;15.90
35582;BMP180;21687;48.900;9.188;2022-10-22T09:40:58;98490.00;;;16.10
35582;BMP180;21687;48.900;9.188;2022-10-22T09:43:24;98491.00;;;16.20
35582;BMP180;21687;48.900;9.188;2022-10-22T09:46:00;98499.00;;;16.20
35582;BMP180;21687;48.900;9.188;2022-10-22T09:48:34;98501.00;;;16.30
35582;BMP180;21687;48.900;9.188;2022-10-22T09:51:04;98512.00;;;16.40
35582;BMP180;21687;48.900;9.188;2022-10-22T09:53:55;98508.00;;;16.50
35582;BMP180;21687;48.900;9.188;2022-10-22T09:56:55;98509.00;;;16.60
35582;BMP180;21687;48.900;9.188;2022-10-22T09:59:28;98521.00;;;16.60
35582;BMP180;21687;48.900;9.188;2022-10-22T10:02:15;98524.00;;;16.60
35582;BMP180;21687;48.900;9.188;2022-10-22T10:04:47;98527.00;;;16.60
35582;BMP180;21687;48.900;9.188;2022-10-22T10:07:33;98524.00;;;16.60
35582;BMP180;21687;48.900;9.188;2022-10-22T10:10:00;98529.00;;;16.60
35582;BMP180;21687;48.900;9.188;2022-10-22T10:12:45;98537.00;;;16.60
35582;BMP180;21687;48.900;9.188;2022-10-22T10:15:29;98536.00;;;16.60
35582;BMP180;21687;48.900;9.188;2022-10-22T10:20:44;98547.00;;;16.60
35582;BMP180;21687;48.900;9.188;2022-10-22T10:23:26;98551.00;;;16.60
35582;BMP180;21687;48.900;9.188;2022-10-22T10:26:00;98553.00;;;16.60
35582;BMP180;21687;48.900;9.188;2022-10-22T10:28:41;98560.00;;;16.60
35582;BMP180;21687;48.900;9.188;2022-10-22T10:31:14;98553.00;;;16.60
35582;BMP180;21687;48.900;9.188;2022-10-22T10:33:46;98556.00;;;16.70
35582;BMP180;21687;48.900;9.188;2022-10-22T10:36:31;98554.00;;;16.80
35582;BMP180;21687;48.900;9.188;2022-10-22T10:39:02;98559.00;;;16.80
35582;BMP180;21687;48.900;9.188;2022-10-22T10:47:43;98562.00;;;17.10
35582;BMP180;21687;48.900;9.188;2022-10-22T10:50:39;98563.00;;;17.20
35582;BMP180;21687;48.900;9.188;2022-10-22T10:53:28;98566.00;;;17.30
35582;BMP180;21687;48.900;9.188;2022-10-22T11:01:54;98568.00;;;17.40
35582;BMP180;21687;48.900;9.188;2022-10-22T11:07:02;98560.00;;;17.10
35582;BMP180;21687;48.900;9.188;2022-10-22T11:09:36;98562.00;;;17.00
35582;BMP180;21687;48.900;9.188;2022-10-22T11:12:17;98557.00;;;16.90
35582;BMP180;21687;48.900;9.188;2022-10-22T11:15:15;98559.00;;;16.70
35582;BMP180;21687;48.900;9.188;2022-10-22T11:17:48;98555.00;;;16.80
35582;BMP180;21687;48.900;9.188;2022-10-22T11:20:28;98568.00;;;16.90
35582;BMP180;21687;48.900;9.188;2022-10-22T11:23:05;98562.00;;;16.90
35582;BMP180;21687;48.900;9.188;2022-10-22T11:25:45;98560.00;;;17.00
35582;BMP180;21687;48.900;9.188;2022-10-22T11:30:44;98557.00;;;17.10
35582;BMP180;21687;48.900;9.188;2022-10-22T11:33:14;98556.00;;;17.10
35582;BMP180;21687;48.900;9.188;2022-10-22T11:35:44;98549.00;;;17.10
35582;BMP180;21687;48.900;9.188;2022-10-22T11:38:16;98556.00;;;17.20
35582;BMP180;21687;48.900;9.188;2022-10-22T11:41:13;98560.00;;;17.30
35582;BMP180;21687;48.900;9.188;2022-10-22T11:44:22;98558.00;;;17.30
35582;BMP180;21687;48.900;9.188;2022-10-22T11:46:57;98555.00;;;17.30
35582;BMP180;21687;48.900;9.188;2022-10-22T11:49:26;98553.00;;;17.30
35582;BMP180;21687;48.900;9.188;2022-10-22T11:52:36;98551.00;;;17.30
35582;BMP180;21687;48.900;9.188;2022-10-22T11:55:00;98552.00;;;17.30
35582;BMP180;21687;48.900;9.188;2022-10-22T11:57:34;98542.00;;;17.30
35582;BMP180;21687;48.900;9.188;2022-10-22T12:00:09;98545.00;;;17.40
35582;BMP180;21687;48.900;9.188;2022-10-22T12:02:44;98555.00;;;17.40
35582;BMP180;21687;48.900;9.188;2022-10-22T12:07:54;98549.00;;;17.60
35582;BMP180;21687;48.900;9.188;2022-10-22T12:10:26;98551.00;;;17.60
35582;BMP180;21687;48.900;9.188;2022-10-22T12:13:04;98554.00;;;17.80
35582;BMP180;21687;48.900;9.188;2022-10-22T12:15:46;98554.00;;;17.80
35582;BMP180;21687;48.900;9.188;2022-10-22T12:18:14;98541.00;;;17.80
35582;BMP180;21687;48.900;9.188;2022-10-22T12:20:41;98539.00;;;17.60
35582;BMP180;21687;48.900;9.188;2022-10-22T12:23:11;98539.00;;;17.60
35582;BMP180;21687;48.900;9.188;2022-10-22T12:25:38;98541.00;;;17.50
35582;BMP180;21687;48.900;9.188;2022-10-22T12:28:08;98540.00;;;17.50
35582;BMP180;21687;48.900;9.188;2022-10-22T12:30:36;98534.00;;;17.50
35582;BMP180;21687;48.900;9.188;2022-10-22T12:33:05;98531.00;;;17.40
35582;BMP180;21687;48.900;9.188;2022-10-22T12:35:34;98537.00;;;17.40
35582;BMP180;21687;48.900;9.188;2022-10-22T12:38:15;98528.00;;;17.60
35582;BMP180;21687;48.900;9.188;2022-10-22T12:40:42;98527.00;;;17.70
35582;BMP180;21687;48.900;9.188;2022-10-22T12:43:17;98520.00;;;17.80
35582;BMP180;21687;48.900;9.188;2022-10-22T12:45:46;98524.00;;;17.80
35582;BMP180;21687;48.900;9.188;2022-10-22T12:48:25;98522.00;;;17.90
35582;BMP180;21687;48.900;9.188;2022-10-22T12:50:54;98515.00;;;17.90
35582;BMP180;21687;48.900;9.188;2022-10-22T12:53:31;98517.00;;;17.90
35582;BMP180;21687;48.900;9.188;2022-10-22T12:56:12;98511.00;;;17.90
35582;BMP180;21687;48.900;9.188;2022-10-22T12:58:48;98507.00;;;17.90
35582;BMP180;21687;48.900;9.188;2022-10-22T13:01:17;98511.00;;;18.00
35582;BMP180;21687;48.900;9.188;2022-10-22T13:03:49;98511.00;;;18.10
35582;BMP180;21687;48.900;9.188;2022-10-22T13:11:21;98513.00;;;18.20
35582;BMP180;21687;48.900;9.188;2022-10-22T13:13:47;98521.00;;;18.30
35582;BMP180;21687;48.900;9.188;2022-10-22T13:16:20;98519.00;;;18.30
35582;BMP180;21687;48.900;9.188;2022-10-22T13:18:49;98524.00;;;18.40
35582;BMP180;21687;48.900;9.188;2022-10-22T13:21:47;98512.00;;;18.60
35582;BMP180;21687;48.900;9.188;2022-10-22T13:24:22;98510.00;;;18.50
35582;BMP180;21687;48.900;9.188;2022-10-22T13:26:53;98512.00;;;18.40
35582;BMP180;21687;48.900;9.188;2022-10-22T13:29:20;98509.00;;;18.30
35582;BMP180;21687;48.900;9.188;2022-10-22T13:31:52;98518.00;;;18.40
35582;BMP180;21687;48.900;9.188;2022-10-22T13:34:20;98512.00;;;18.30
35582;BMP180;21687;48.900;9.188;2022-10-22T13:36:48;98518.00;;;18.40
35582;BMP180;21687;48.900;9.188;2022-10-22T13:39:23;98514.00;;;18.40
35582;BMP180;21687;48.900;9.188;2022-10-22T13:41:50;98508.00;;;18.40
35582;BMP180;21687;48.900;9.188;2022-10-22T13:44:17;98513.00;;;18.50
35582;BMP180;21687;48.900;9.188;2022-10-22T13:46:46;98509.00;;;18.40
35582;BMP180;21687;48.900;9.188;2022-10-22T13:49:19;98507.00;;;18.30
35582;BMP180;21687;48.900;9.188;2022-10-22T13:51:47;98506.00;;;18.30
35582;BMP180;21687;48.900;9.188;2022-10-22T13:54:18;98505.00;;;18.30
35582;BMP180;21687;48.900;9.188;2022-10-22T13:56:47;98500.00;;;18.20
35582;BMP180;21687;48.900;9.188;2022-10-22T13:59:13;98502.00;;;18.20
35582;BMP180;21687;48.900;9.188;2022-10-22T14:01:40;98496.00;;;18.20
35582;BMP180;21687;48.900;9.188;2022-10-22T14:04:09;98508.00;;;18.20
35582;BMP180;21687;48.900;9.188;2022-10-22T14:06:37;98501.00;;;18.20
35582;BMP180;21687;48.900;9.188;2022-10-22T14:09:06;98511.00;;;18.20
35582;BMP180;21687;48.900;9.188;2022-10-22T14:11:33;98506.00;;;18.10
35582;BMP180;21687;48.900;9.188;2022-10-22T14:14:00;98511.00;;;18.10
35582;BMP180;21687;48.900;9.188;2022-10-22T14:16:31;98515.00;;;18.10
35582;BMP180;21687;48.900;9.188;2022-10-22T14:18:58;98508.00;;;18.00
35582;BMP180;21687;48.900;9.188;2022-10-22T14:21:28;98510.00;;;17.90
35582;BMP180;21687;48.900;9.188;2022-10-22T14:23:55;98513.00;;;17.80
35582;BMP180;21687;48.900;9.188;2022-10-22T14:26:27;98510.00;;;17.80
35582;BMP180;21687;48.900;9.188;2022-10-22T14:28:55;98509.00;;;17.80
35582;BMP180;21687;48.900;9.188;2022-10-22T14:31:22;98504.00;;;17.70
35582;BMP180;21687;48.900;9.188;2022-10-22T14:33:48;98499.00;;;17.70
35582;BMP180;21687;48.900;9.188;2022-10-22T14:36:16;98497.00;;;17.60
35582;BMP180;21687;48.900;9.188;2022-10-22T14:38:45;98508.00;;;17.70
35582;BMP180;21687;48.900;9.188;2022-10-22T14:41:20;98502.00;;;17.70
35582;BMP180;21687;48.900;9.188;2022-10-22T14:43:48;98498.00;;;17.70
35582;BMP180;21687;48.900;9.188;2022-10-22T14:46:15;98508.00;;;17.70
35582;BMP180;21687;48.900;9.188;2022-10-22T14:48:42;98508.00;;;17.70
35582;BMP180;21687;48.900;9.188;2022-10-22T14:51:14;98501.00;;;17.80
35582;BMP180;21687;48.900;9.188;2022-10-22T14:53:41;98508.00;;;17.70
35582;BMP180;21687;48.900;9.188;2022-10-22T14:56:10;98504.00;;;17.70
35582;BMP180;21687;48.900;9.188;2022-10-22T14:58:37;98506.00;;;17.70
35582;BMP180;21687;48.900;9.188;2022-10-22T15:01:04;98508.00;;;17.60
35582;BMP180;21687;48.900;9.188;2022-10-22T15:03:30;98512.00;;;17.80
35582;BMP180;21687;48.900;9.188;2022-10-22T15:05:57;98509.00;;;17.70
35582;BMP180;21687;48.900;9.188;2022-10-22T15:08:24;98511.00;;;17.60
35582;BMP180;21687;48.900;9.188;2022-10-22T15:11:11;98516.00;;;17.60
35582;BMP180;21687;48.900;9.188;2022-10-22T15:13:38;98522.00;;;17.60
35582;BMP180;21687;48.900;9.188;2022-10-22T15:16:08;98521.00;;;17.50
35582;BMP180;21687;48.900;9.188;2022-10-22T15:18:34;98526.00;;;17.50
35582;BMP180;21687;48.900;9.188;2022-10-22T15:21:06;98526.00;;;17.50
35582;BMP180;21687;48.900;9.188;2022-10-22T15:23:33;98522.00;;;17.40
35582;BMP180;21687;48.900;9.188;2022-10-22T15:26:00;98524.00;;;17.30
35582;BMP180;21687;48.900;9.188;2022-10-22T15:28:27;98516.00;;;17.30
35582;BMP180;21687;48.900;9.188;2022-10-22T15:30:58;98521.00;;;17.20
35582;BMP180;21687;48.900;9.188;2022-10-22T15:33:25;98516.00;;;17.10
35582;BMP180;21687;48.900;9.188;2022-10-22T15:35:51;98519.00;;;17.00
35582;BMP180;21687;48.900;9.188;2022-10-22T15:38:19;98529.00;;;17.10
35582;BMP180;21687;48.900;9.188;2022-10-22T15:40:45;98518.00;;;17.00
35582;BMP180;21687;48.900;9.188;2022-10-22T15:43:12;98519.00;;;17.00
35582;BMP180;21687;48.900;9.188;2022-10-22T15:45:38;98514.00;;;16.90
35582;BMP180;21687;48.900;9.188;2022-10-22T15:48:05;98513.00;;;16.80
35582;BMP180;21687;48.900;9.188;2022-10-22T15:50:33;98518.00;;;16.80
35582;BMP180;21687;48.900;9.188;2022-10-22T15:53:02;98513.00;;;16.60
35582;BMP180;21687;48.900;9.188;2022-10-22T15:55:30;98522.00;;;16.60
35582;BMP180;21687;48.900;9.188;2022-10-22T15:57:56;98524.00;;;16.50
35582;BMP180;21687;48.900;9.188;2022-10-22T16:00:23;98526.00;;;16.40
35582;BMP180;21687;48.900;9.188;2022-10-22T16:02:50;98521.00;;;16.30
35582;BMP180;21687;48.900;9.188;2022-10-22T16:05:16;98521.00;;;16.10
35582;BMP180;21687;48.900;9.188;2022-10-22T16:07:42;98522.00;;;15.90
35582;BMP180;21687;48.900;9.188;2022-10-22T16:10:09;98517.00;;;15.70
35582;BMP180;21687;48.900;9.188;2022-10-22T16:12:37;98531.00;;;15.50
35582;BMP180;21687;48.900;9.188;2022-10-22T16:15:06;98530.00;;;15.30
35582;BMP180;21687;48.900;9.188;2022-10-22T16:17:33;98525.00;;;15.10
35582;BMP180;21687;48.900;9.188;2022-10-22T16:19:59;98525.00;;;15.00
35582;BMP180;21687;48.900;9.188;2022-10-22T16:22:25;98530.00;;;14.80
35582;BMP180;21687;48.900;9.188;2022-10-22T16:24:51;98525.00;;;14.70
35582;BMP180;21687;48.900;9.188;2022-10-22T16:27:17;98530.00;;;14.50
35582;BMP180;21687;48.900;9.188;2022-10-22T16:29:44;98526.00;;;14.40
35582;BMP180;21687;48.900;9.188;2022-10-22T16:32:10;98526.00;;;14.30